Time;durP1;ratioP1;P1;durP2;ratioP2;P2;SDS_P1;SDS_P2;PMS_P1;PMS_P2;Temp;Humidity;BMP_temperature;BMP_pressure;BME280_temperature;BME280_humidity;BME280_pressure;Samples;Min_cycle;Max_cycle;Signal;HPM_P1;HPM_P2
2021/06/22 00:00:26;;;;;;;4.30;1.42;;;;;;;;;;4970193;28;20030;-72
2021/06/22 00:03:13;;;;;;;2.83;1.42;;;;;;;;;;4959040;28;20034;-72
2021/06/22 00:06:00;;;;;;;3.92;1.60;;;;;;;;;;4967683;28;20035;-72
2021/06/22 00:08:46;;;;;;;3.25;1.50;;;;;;;;;;4967604;28;20502;-72
2021/06/22 00:11:33;;;;;;;4.72;1.92;;;;;;;;;;4968231;28;20035;-72
2021/06/22 00:14:20;;;;;;;3.00;1.30;;;;;;;;;;4964375;28;20039;-72
2021/06/22 00:17:07;;;;;;;2.50;1.50;;;;;;;;;;4962706;28;20041;-72
2021/06/22 00:19:54;;;;;;;3.08;1.60;;;;;;;;;;4968415;28;20042;-73
2021/06/22 00:22:41;;;;;;;4.43;1.63;;;;;;;;;;4968484;28;20031;-72
2021/06/22 00:25:28;;;;;;;5.53;1.60;;;;;;;;;;4968526;28;20039;-71
2021/06/22 00:28:15;;;;;;;3.33;1.42;;;;;;;;;;4958992;28;20552;-72
2021/06/22 00:31:01;;;;;;;4.03;1.40;;;;;;;;;;4969511;28;20046;-73
2021/06/22 00:33:48;;;;;;;8.73;2.15;;;;;;;;;;4968674;28;20030;-72
2021/06/22 00:36:37;;;;;;;2.53;1.40;;;;;;;;;;4968820;28;20491;-73
2021/06/22 00:39:23;;;;;;;4.13;1.55;;;;;;;;;;4967402;28;20030;-73
2021/06/22 00:42:11;;;;;;;2.40;1.25;;;;;;;;;;4965294;28;20043;-72
2021/06/22 00:45:00;;;;;;;3.92;1.80;;;;;;;;;;4967393;28;20030;-73
2021/06/22 00:47:47;;;;;;;2.60;1.58;;;;;;;;;;4969491;28;20545;-72
2021/06/22 00:50:34;;;;;;;4.00;1.50;;;;;;;;;;4968854;28;20399;-72
2021/06/22 00:53:20;;;;;;;2.95;1.92;;;;;;;;;;4968939;28;20034;-73
2021/06/22 00:56:07;;;;;;;2.25;1.58;;;;;;;;;;4966298;28;20037;-72
2021/06/22 00:58:54;;;;;;;3.75;1.42;;;;;;;;;;4969672;28;20039;-72
2021/06/22 01:01:40;;;;;;;3.38;1.70;;;;;;;;;;4958173;28;20027;-71
2021/06/22 01:04:28;;;;;;;6.38;1.63;;;;;;;;;;4966990;28;20031;-71
2021/06/22 01:07:15;;;;;;;3.40;1.58;;;;;;;;;;4967756;28;20093;-72
2021/06/22 01:10:02;;;;;;;3.33;1.67;;;;;;;;;;4959170;28;20043;-73
2021/06/22 01:12:49;;;;;;;4.45;1.50;;;;;;;;;;4970199;28;20034;-71
2021/06/22 01:15:36;;;;;;;3.15;1.42;;;;;;;;;;4971522;28;20031;-72
2021/06/22 01:18:26;;;;;;;2.88;1.33;;;;;;;;;;4969868;28;20509;-73
2021/06/22 01:21:15;;;;;;;3.13;1.40;;;;;;;;;;4971687;28;20069;-72
2021/06/22 01:24:09;;;;;;;3.10;1.40;;;;;;;;;;4962519;28;20031;-72
2021/06/22 01:27:00;;;;;;;8.65;1.70;;;;;;;;;;4970536;28;20045;-72
2021/06/22 01:29:47;;;;;;;2.58;1.67;;;;;;;;;;4970677;28;20679;-72
2021/06/22 01:32:34;;;;;;;4.70;1.63;;;;;;;;;;4970575;28;20026;-72
2021/06/22 01:35:20;;;;;;;4.53;1.50;;;;;;;;;;4968838;28;20038;-72
2021/06/22 01:38:08;;;;;;;4.20;1.75;;;;;;;;;;4962421;28;20037;-73
2021/06/22 01:40:55;;;;;;;4.13;1.40;;;;;;;;;;4959559;28;20499;-72
2021/06/22 01:43:42;;;;;;;3.90;1.50;;;;;;;;;;4958943;28;20031;-72
2021/06/22 01:46:28;;;;;;;3.17;1.33;;;;;;;;;;4971256;28;20030;-73
2021/06/22 01:49:15;;;;;;;3.58;1.63;;;;;;;;;;4969675;28;20479;-72
2021/06/22 01:52:02;;;;;;;12.45;2.45;;;;;;;;;;4970928;28;20046;-72
2021/06/22 01:54:53;;;;;;;13.45;2.63;;;;;;;;;;4970824;28;20046;-72
2021/06/22 01:57:40;;;;;;;6.85;2.40;;;;;;;;;;4970025;28;20060;-72
2021/06/22 02:00:26;;;;;;;8.50;1.83;;;;;;;;;;4971485;28;20043;-72
2021/06/22 02:03:15;;;;;;;6.13;2.15;;;;;;;;;;4960887;28;20050;-72
2021/06/22 02:06:02;;;;;;;11.15;2.00;;;;;;;;;;4969938;28;20031;-72
2021/06/22 02:08:48;;;;;;;5.38;1.85;;;;;;;;;;4959177;28;20144;-72
2021/06/22 02:11:35;;;;;;;3.30;1.55;;;;;;;;;;4976139;28;20039;-72
2021/06/22 02:14:22;;;;;;;4.03;1.90;;;;;;;;;;4971003;28;20051;-72
2021/06/22 02:17:09;;;;;;;3.17;1.58;;;;;;;;;;4970974;28;20035;-73
2021/06/22 02:19:55;;;;;;;6.78;2.05;;;;;;;;;;4971102;28;20042;-72
2021/06/22 02:22:42;;;;;;;2.75;1.75;;;;;;;;;;4970572;28;20041;-71
2021/06/22 02:25:29;;;;;;;3.35;1.85;;;;;;;;;;4970734;28;20050;-71
2021/06/22 02:28:18;;;;;;;3.47;1.38;;;;;;;;;;4968780;28;20533;-72
2021/06/22 02:31:05;;;;;;;3.63;1.55;;;;;;;;;;4970307;28;20482;-72
2021/06/22 02:33:52;;;;;;;3.95;1.70;;;;;;;;;;4969705;28;20505;-74
2021/06/22 02:36:38;;;;;;;3.88;2.03;;;;;;;;;;4970205;28;20034;-72
2021/06/22 02:39:25;;;;;;;3.13;1.50;;;;;;;;;;4963332;28;20038;-72
2021/06/22 02:42:12;;;;;;;3.38;1.42;;;;;;;;;;4963040;28;20066;-73
2021/06/22 02:44:59;;;;;;;3.55;1.50;;;;;;;;;;4970310;28;20641;-71
2021/06/22 02:47:46;;;;;;;3.65;1.63;;;;;;;;;;4968465;28;20057;-73
2021/06/22 02:50:32;;;;;;;2.95;1.42;;;;;;;;;;4970074;28;20034;-72
2021/06/22 02:53:20;;;;;;;3.72;1.75;;;;;;;;;;4970106;28;20057;-72
2021/06/22 02:56:07;;;;;;;4.72;2.13;;;;;;;;;;4964107;28;20398;-72
2021/06/22 02:58:54;;;;;;;2.85;1.65;;;;;;;;;;4968621;28;20498;-73
2021/06/22 03:01:41;;;;;;;3.25;1.50;;;;;;;;;;4969030;28;20026;-72
2021/06/22 03:04:28;;;;;;;2.47;1.33;;;;;;;;;;4968210;28;20046;-72
2021/06/22 03:07:15;;;;;;;4.55;1.70;;;;;;;;;;4969154;28;20054;-72
2021/06/22 03:10:01;;;;;;;3.28;1.60;;;;;;;;;;4959791;28;20358;-72
2021/06/22 03:12:48;;;;;;;5.18;1.63;;;;;;;;;;4964026;28;20061;-72
2021/06/22 03:15:35;;;;;;;2.55;1.58;;;;;;;;;;4968150;28;20035;-73
2021/06/22 03:18:21;;;;;;;3.83;1.60;;;;;;;;;;4968877;28;20376;-73
2021/06/22 03:21:08;;;;;;;2.50;1.42;;;;;;;;;;4968652;28;20035;-73
2021/06/22 03:23:55;;;;;;;3.40;1.52;;;;;;;;;;4968166;28;20081;-72
2021/06/22 03:26:41;;;;;;;2.78;1.60;;;;;;;;;;4968561;28;20394;-72
2021/06/22 03:29:28;;;;;;;4.05;1.60;;;;;;;;;;4969972;28;20050;-72
2021/06/22 03:32:15;;;;;;;3.58;1.50;;;;;;;;;;4958838;28;20069;-72
2021/06/22 03:35:04;;;;;;;4.47;1.45;;;;;;;;;;4969119;28;20031;-73
2021/06/22 03:37:51;;;;;;;4.22;1.70;;;;;;;;;;4969717;28;20031;-72
2021/06/22 03:40:37;;;;;;;5.40;2.05;;;;;;;;;;4969393;28;20043;-72
2021/06/22 03:43:24;;;;;;;3.05;1.58;;;;;;;;;;4968585;28;20038;-72
2021/06/22 03:46:11;;;;;;;4.75;1.50;;;;;;;;;;4958453;28;20042;-72
2021/06/22 03:48:58;;;;;;;5.78;2.08;;;;;;;;;;4969539;28;20073;-72
2021/06/22 03:51:44;;;;;;;5.32;1.67;;;;;;;;;;4968813;28;20031;-72
2021/06/22 03:54:31;;;;;;;4.80;1.67;;;;;;;;;;4968601;28;20034;-72
2021/06/22 03:57:18;;;;;;;4.30;1.52;;;;;;;;;;4967300;28;20505;-73
2021/06/22 04:00:05;;;;;;;3.60;1.73;;;;;;;;;;4967514;28;20042;-73
2021/06/22 04:02:52;;;;;;;3.30;1.30;;;;;;;;;;4956116;28;20039;-72
2021/06/22 04:05:39;;;;;;;3.42;1.70;;;;;;;;;;4967189;28;20031;-72
2021/06/22 04:08:25;;;;;;;3.85;1.77;;;;;;;;;;4968360;28;20418;-72
2021/06/22 04:11:13;;;;;;;3.00;1.55;;;;;;;;;;4958161;28;20043;-72
2021/06/22 04:14:00;;;;;;;4.68;1.60;;;;;;;;;;4968567;28;20498;-73
2021/06/22 04:16:46;;;;;;;4.82;1.55;;;;;;;;;;4967921;28;20047;-73
2021/06/22 04:19:33;;;;;;;3.92;1.98;;;;;;;;;;4968373;28;20031;-72
2021/06/22 04:22:20;;;;;;;3.67;1.80;;;;;;;;;;4968861;28;20030;-72
2021/06/22 04:25:06;;;;;;;4.28;1.55;;;;;;;;;;4967815;28;20035;-72
2021/06/22 04:27:53;;;;;;;3.40;1.50;;;;;;;;;;4969118;28;20414;-72
2021/06/22 04:30:40;;;;;;;4.55;1.77;;;;;;;;;;4962293;28;20046;-73
2021/06/22 04:33:27;;;;;;;3.42;1.90;;;;;;;;;;4965755;28;20038;-72
2021/06/22 04:36:13;;;;;;;4.00;1.60;;;;;;;;;;4968850;28;20038;-72
2021/06/22 04:39:00;;;;;;;3.78;1.52;;;;;;;;;;4967537;28;20034;-72
2021/06/22 04:41:47;;;;;;;2.75;1.60;;;;;;;;;;4968341;28;20039;-72
2021/06/22 04:44:33;;;;;;;3.75;1.63;;;;;;;;;;4972278;28;20513;-73
2021/06/22 04:47:20;;;;;;;2.83;1.80;;;;;;;;;;4972544;28;20090;-72
2021/06/22 04:50:07;;;;;;;4.70;2.05;;;;;;;;;;4972309;28;20245;-72
2021/06/22 04:52:54;;;;;;;5.82;1.67;;;;;;;;;;4972586;28;20591;-73
2021/06/22 04:55:40;;;;;;;3.03;1.55;;;;;;;;;;4971883;28;20038;-72
2021/06/22 04:58:27;;;;;;;6.13;2.20;;;;;;;;;;4971208;28;20046;-72
2021/06/22 05:01:14;;;;;;;3.45;1.50;;;;;;;;;;4961380;28;20057;-71
2021/06/22 05:04:01;;;;;;;3.88;1.80;;;;;;;;;;4964669;28;20042;-73
2021/06/22 05:06:47;;;;;;;3.72;1.65;;;;;;;;;;4969419;28;20035;-73
2021/06/22 05:09:34;;;;;;;3.90;1.55;;;;;;;;;;4960065;28;20419;-72
2021/06/22 05:12:21;;;;;;;2.75;1.33;;;;;;;;;;4971150;28;20043;-73
2021/06/22 05:15:09;;;;;;;3.40;1.67;;;;;;;;;;4971817;28;20053;-73
2021/06/22 05:17:56;;;;;;;4.18;1.75;;;;;;;;;;4970931;28;20033;-72
2021/06/22 05:20:42;;;;;;;4.72;1.60;;;;;;;;;;4971987;28;20035;-72
2021/06/22 05:23:29;;;;;;;3.85;1.70;;;;;;;;;;4970850;28;20039;-73
2021/06/22 05:26:16;;;;;;;2.78;1.90;;;;;;;;;;4971221;28;20035;-72
2021/06/22 05:29:02;;;;;;;3.80;1.90;;;;;;;;;;4970319;28;20126;-73
2021/06/22 05:31:49;;;;;;;2.80;1.27;;;;;;;;;;4970181;28;20038;-72
2021/06/22 05:34:36;;;;;;;4.50;1.95;;;;;;;;;;4969803;28;20053;-73
2021/06/22 05:37:24;;;;;;;2.63;1.52;;;;;;;;;;4960301;28;20034;-73
2021/06/22 05:40:11;;;;;;;3.90;1.67;;;;;;;;;;4970476;28;20407;-73
2021/06/22 05:42:57;;;;;;;3.67;1.80;;;;;;;;;;4959279;28;20035;-73
2021/06/22 05:45:44;;;;;;;2.80;1.30;;;;;;;;;;4969689;28;20042;-73
2021/06/22 05:48:31;;;;;;;4.03;1.50;;;;;;;;;;4967158;28;20041;-74
2021/06/22 05:51:19;;;;;;;3.58;1.50;;;;;;;;;;4970959;28;20043;-73
2021/06/22 05:54:06;;;;;;;2.63;1.45;;;;;;;;;;4969923;28;20025;-72
2021/06/22 05:56:53;;;;;;;3.38;1.58;;;;;;;;;;4971247;28;20042;-73
2021/06/22 05:59:39;;;;;;;3.33;1.60;;;;;;;;;;4959592;28;20027;-72
2021/06/22 06:02:26;;;;;;;5.90;1.60;;;;;;;;;;4959079;28;20031;-73
2021/06/22 06:05:13;;;;;;;4.00;1.60;;;;;;;;;;4965471;28;20603;-73
2021/06/22 06:08:00;;;;;;;5.50;1.40;;;;;;;;;;4970312;28;20058;-72
2021/06/22 06:10:46;;;;;;;3.22;1.42;;;;;;;;;;4970783;28;20031;-73
2021/06/22 06:13:35;;;;;;;3.72;1.40;;;;;;;;;;4960514;28;20407;-72
2021/06/22 06:16:22;;;;;;;2.08;1.20;;;;;;;;;;4970685;28;20035;-72
2021/06/22 06:19:08;;;;;;;4.93;1.73;;;;;;;;;;4969557;28;20047;-73
2021/06/22 06:21:55;;;;;;;4.85;1.70;;;;;;;;;;4960659;28;20039;-73
2021/06/22 06:24:42;;;;;;;4.40;1.67;;;;;;;;;;4970179;28;20042;-72
2021/06/22 06:30:30;;;;;;;2.30;1.20;;;;;;;;;;4962637;28;20057;-72
2021/06/22 06:33:17;;;;;;;3.17;1.60;;;;;;;;;;4968679;28;20041;-73
2021/06/22 06:36:04;;;;;;;3.97;1.55;;;;;;;;;;4970451;28;20035;-73
2021/06/22 06:38:50;;;;;;;2.85;1.25;;;;;;;;;;4968615;28;20039;-72
2021/06/22 06:41:37;;;;;;;4.63;1.60;;;;;;;;;;4970756;28;20042;-73
2021/06/22 06:44:24;;;;;;;3.47;1.50;;;;;;;;;;4970674;28;20035;-72
2021/06/22 06:47:10;;;;;;;3.95;1.48;;;;;;;;;;4969169;28;20035;-72
2021/06/22 06:49:57;;;;;;;3.50;1.77;;;;;;;;;;4967711;28;20049;-73
2021/06/22 06:52:44;;;;;;;4.60;1.30;;;;;;;;;;4970384;28;20031;-72
2021/06/22 06:55:49;;;;;;;2.92;1.40;;;;;;;;;;4969302;28;20455;-73
2021/06/22 06:58:36;;;;;;;4.20;1.58;;;;;;;;;;4969486;28;20053;-73
2021/06/22 07:01:22;;;;;;;2.28;1.35;;;;;;;;;;4960287;28;20041;-73
2021/06/22 07:04:09;;;;;;;3.90;1.80;;;;;;;;;;4969316;28;20064;-72
2021/06/22 07:06:56;;;;;;;2.97;1.42;;;;;;;;;;4969448;28;20042;-73
2021/06/22 07:09:43;;;;;;;3.67;1.55;;;;;;;;;;4957818;28;20045;-73
2021/06/22 07:12:29;;;;;;;2.78;1.33;;;;;;;;;;4969935;28;20023;-73
2021/06/22 07:15:16;;;;;;;4.53;1.70;;;;;;;;;;4969361;28;20043;-72
2021/06/22 07:18:03;;;;;;;4.85;1.52;;;;;;;;;;4966725;28;20062;-71
2021/06/22 07:20:50;;;;;;;4.03;1.60;;;;;;;;;;4968545;28;20046;-72
2021/06/22 07:23:36;;;;;;;3.20;1.45;;;;;;;;;;4970659;28;20038;-72
2021/06/22 07:26:23;;;;;;;2.35;1.38;;;;;;;;;;4969577;28;20035;-73
2021/06/22 07:29:10;;;;;;;3.90;1.77;;;;;;;;;;4968708;28;20071;-73
2021/06/22 07:31:56;;;;;;;4.28;1.70;;;;;;;;;;4969285;28;20043;-73
2021/06/22 07:34:43;;;;;;;4.00;1.60;;;;;;;;;;4969282;28;20229;-72
2021/06/22 07:37:31;;;;;;;2.90;1.40;;;;;;;;;;4968300;28;20037;-73
2021/06/22 07:40:17;;;;;;;2.95;1.38;;;;;;;;;;4969511;28;20041;-73
2021/06/22 07:43:04;;;;;;;4.72;1.67;;;;;;;;;;4956674;28;20031;-73
2021/06/22 07:45:51;;;;;;;4.18;1.70;;;;;;;;;;4956665;28;20034;-73
2021/06/22 07:48:37;;;;;;;4.00;1.55;;;;;;;;;;4966729;28;20055;-72
2021/06/22 07:51:24;;;;;;;3.63;1.60;;;;;;;;;;4966259;28;20483;-72
2021/06/22 07:54:11;;;;;;;5.18;1.90;;;;;;;;;;4955750;28;20039;-72
2021/06/22 07:56:57;;;;;;;5.05;1.58;;;;;;;;;;4968705;28;20035;-72
2021/06/22 07:59:44;;;;;;;3.95;1.45;;;;;;;;;;4968744;28;20027;-73
2021/06/22 08:02:31;;;;;;;3.58;1.52;;;;;;;;;;4969229;28;20027;-72
2021/06/22 08:05:17;;;;;;;3.10;1.50;;;;;;;;;;4967739;28;20039;-72
2021/06/22 08:08:05;;;;;;;5.70;1.75;;;;;;;;;;4968155;28;20055;-72
2021/06/22 08:10:53;;;;;;;5.07;2.00;;;;;;;;;;4968448;28;20039;-72
2021/06/22 08:13:40;;;;;;;3.35;1.52;;;;;;;;;;4968040;28;20031;-73
2021/06/22 08:16:27;;;;;;;3.47;1.85;;;;;;;;;;4969640;28;20046;-74
2021/06/22 08:19:13;;;;;;;3.45;1.48;;;;;;;;;;4971291;28;20034;-72
2021/06/22 08:22:02;;;;;;;4.40;1.70;;;;;;;;;;4984175;28;20411;-74
2021/06/22 08:24:49;;;;;;;3.30;1.50;;;;;;;;;;4971507;28;20058;-72
2021/06/22 08:27:36;;;;;;;3.45;1.63;;;;;;;;;;4972685;28;20441;-72
2021/06/22 08:30:23;;;;;;;3.20;1.52;;;;;;;;;;4972256;28;20039;-72
2021/06/22 08:33:12;;;;;;;3.25;1.70;;;;;;;;;;4972759;28;20366;-72
2021/06/22 08:35:58;;;;;;;3.45;1.45;;;;;;;;;;4963557;28;20033;-72
2021/06/22 08:38:45;;;;;;;3.95;1.70;;;;;;;;;;4973027;28;20030;-73
2021/06/22 08:41:34;;;;;;;3.30;1.65;;;;;;;;;;4972978;28;20055;-73
2021/06/22 08:44:24;;;;;;;4.13;1.77;;;;;;;;;;4961710;28;20523;-72
2021/06/22 08:47:12;;;;;;;3.63;1.80;;;;;;;;;;4972278;28;20039;-72
2021/06/22 08:49:59;;;;;;;3.17;1.40;;;;;;;;;;4972552;28;20050;-74
2021/06/22 08:52:46;;;;;;;2.65;1.30;;;;;;;;;;4972205;28;20037;-72
2021/06/22 08:55:33;;;;;;;3.30;1.60;;;;;;;;;;4971522;28;20032;-72
2021/06/22 08:58:20;;;;;;;4.53;1.70;;;;;;;;;;4972583;28;20057;-72
2021/06/22 09:01:06;;;;;;;3.58;1.35;;;;;;;;;;4971701;28;20034;-72
2021/06/22 09:03:53;;;;;;;3.45;2.05;;;;;;;;;;4971393;28;20049;-72
2021/06/22 09:06:40;;;;;;;2.70;1.48;;;;;;;;;;4971963;28;20031;-73
2021/06/22 09:09:36;;;;;;;3.78;1.70;;;;;;;;;;4970681;28;20042;-72
2021/06/22 09:12:26;;;;;;;3.63;1.77;;;;;;;;;;4970663;28;20049;-73
2021/06/22 09:15:26;;;;;;;3.97;1.83;;;;;;;;;;4970594;28;20403;-72
2021/06/22 09:18:24;;;;;;;5.60;1.52;;;;;;;;;;4971188;28;20023;-72
2021/06/22 09:21:27;;;;;;;3.28;1.73;;;;;;;;;;4969526;28;20418;-72
2021/06/22 09:24:16;;;;;;;5.00;1.70;;;;;;;;;;4965912;28;20650;-72
2021/06/22 09:27:03;;;;;;;3.20;1.48;;;;;;;;;;4959829;28;20653;-72
2021/06/22 09:29:50;;;;;;;3.72;1.83;;;;;;;;;;4969426;28;20051;-72
2021/06/22 09:32:37;;;;;;;5.57;2.03;;;;;;;;;;4970638;28;20034;-72
2021/06/22 09:35:25;;;;;;;4.22;1.73;;;;;;;;;;4968938;28;20047;-72
2021/06/22 09:38:12;;;;;;;3.72;1.75;;;;;;;;;;4971707;28;20030;-72
2021/06/22 09:41:03;;;;;;;2.67;1.42;;;;;;;;;;4969843;28;20042;-72
2021/06/22 09:43:50;;;;;;;;;;;;;;;;;;4972334;28;20037;-72
2021/06/22 09:46:37;;;;;;;3.72;1.63;;;;;;;;;;4968733;28;19910;-72
2021/06/22 09:49:23;;;;;;;3.83;1.80;;;;;;;;;;4960423;28;20047;-72
2021/06/22 09:52:13;;;;;;;3.58;1.65;;;;;;;;;;4970767;28;20038;-72
2021/06/22 09:55:00;;;;;;;3.60;1.70;;;;;;;;;;4971277;28;20039;-72
2021/06/22 09:57:47;;;;;;;3.17;1.77;;;;;;;;;;4970534;28;20045;-73
2021/06/22 10:00:38;;;;;;;4.82;1.70;;;;;;;;;;4972263;28;20395;-72
2021/06/22 10:03:34;;;;;;;3.25;1.45;;;;;;;;;;4971349;28;20403;-72
2021/06/22 10:06:20;;;;;;;3.58;1.60;;;;;;;;;;4970042;28;20031;-72
2021/06/22 10:09:07;;;;;;;3.30;1.30;;;;;;;;;;4970170;28;20393;-72
2021/06/22 10:11:59;;;;;;;3.95;1.70;;;;;;;;;;4965312;28;20498;-72
2021/06/22 10:14:45;;;;;;;;;;;;;;;;;;4971388;28;20039;-73
2021/06/22 10:17:32;;;;;;;4.57;1.55;;;;;;;;;;4971098;28;19916;-72
2021/06/22 10:20:19;;;;;;;3.35;1.50;;;;;;;;;;4957457;28;20057;-72
2021/06/22 10:23:06;;;;;;;5.30;1.90;;;;;;;;;;4970618;28;20043;-72
2021/06/22 10:25:53;;;;;;;4.05;1.45;;;;;;;;;;4969452;28;20043;-73
2021/06/22 10:28:40;;;;;;;4.32;1.60;;;;;;;;;;4957377;28;20045;-73
2021/06/22 10:31:29;;;;;;;2.97;1.58;;;;;;;;;;4967224;28;20043;-73
2021/06/22 10:34:16;;;;;;;3.55;1.30;;;;;;;;;;4970955;28;20039;-73
2021/06/22 10:37:12;;;;;;;3.42;1.70;;;;;;;;;;4970470;28;20037;-73
2021/06/22 10:40:25;;;;;;;3.47;1.50;;;;;;;;;;4968894;28;20538;-73
2021/06/22 10:43:12;;;;;;;4.13;1.50;;;;;;;;;;4964640;28;20054;-73
2021/06/22 10:46:05;;;;;;;4.60;1.60;;;;;;;;;;4968016;28;20045;-72
2021/06/22 10:48:55;;;;;;;5.20;1.40;;;;;;;;;;4968987;28;20038;-72
2021/06/22 10:51:48;;;;;;;2.92;1.50;;;;;;;;;;4969918;28;20035;-72
2021/06/22 10:54:50;;;;;;;3.17;1.73;;;;;;;;;;4969159;28;20034;-72
2021/06/22 10:58:08;;;;;;;3.05;1.38;;;;;;;;;;4969862;28;20652;-72
2021/06/22 11:00:55;;;;;;;5.93;1.40;;;;;;;;;;4968972;28;20037;-72
2021/06/22 11:03:42;;;;;;;2.97;1.52;;;;;;;;;;4968936;28;20045;-73
2021/06/22 11:06:29;;;;;;;4.00;1.38;;;;;;;;;;4968201;28;20034;-73
2021/06/22 11:09:17;;;;;;;4.88;1.55;;;;;;;;;;4970099;28;20044;-72
2021/06/22 11:12:24;;;;;;;3.67;1.80;;;;;;;;;;4970672;28;20039;-74
2021/06/22 11:15:11;;;;;;;3.50;1.30;;;;;;;;;;4962826;28;20087;-73
2021/06/22 11:17:58;;;;;;;4.38;1.50;;;;;;;;;;4968709;28;20038;-73
2021/06/22 11:21:05;;;;;;;3.58;1.40;;;;;;;;;;4968544;28;20039;-72
2021/06/22 11:23:54;;;;;;;4.68;1.50;;;;;;;;;;4960380;28;20042;-73
2021/06/22 11:26:41;;;;;;;3.72;1.70;;;;;;;;;;4968232;28;20027;-73
2021/06/22 11:29:37;;;;;;;3.10;1.40;;;;;;;;;;4968818;28;20053;-73
2021/06/22 11:32:27;;;;;;;4.45;1.55;;;;;;;;;;4968908;28;20510;-72
2021/06/22 11:35:17;;;;;;;2.67;1.33;;;;;;;;;;4968661;28;20038;-72
2021/06/22 11:38:12;;;;;;;2.95;1.55;;;;;;;;;;4967862;28;20027;-73
2021/06/22 11:41:12;;;;;;;2.75;1.50;;;;;;;;;;4969504;28;20038;-72
2021/06/22 11:44:08;;;;;;;2.75;1.50;;;;;;;;;;4969866;28;20117;-72
2021/06/22 11:46:55;;;;;;;3.20;1.35;;;;;;;;;;4963206;28;20043;-72
2021/06/22 11:49:46;;;;;;;2.85;1.50;;;;;;;;;;4968835;28;20058;-73
2021/06/22 11:52:33;;;;;;;3.45;1.52;;;;;;;;;;4968836;28;20035;-72
2021/06/22 11:55:21;;;;;;;2.65;1.30;;;;;;;;;;4967125;28;20570;-72
2021/06/22 11:58:08;;;;;;;2.63;1.33;;;;;;;;;;4961547;28;20031;-71
2021/06/22 12:00:56;;;;;;;2.80;1.40;;;;;;;;;;4965498;28;20079;-72
2021/06/22 12:03:44;;;;;;;3.53;1.35;;;;;;;;;;4964942;28;20038;-71
2021/06/22 12:06:31;;;;;;;3.10;1.70;;;;;;;;;;4959106;28;20035;-71
2021/06/22 12:09:21;;;;;;;2.97;1.45;;;;;;;;;;4967275;28;20051;-73
2021/06/22 12:12:08;;;;;;;4.22;1.70;;;;;;;;;;4961604;28;20723;-73
2021/06/22 12:14:56;;;;;;;4.00;1.63;;;;;;;;;;4965931;28;20050;-69
2021/06/22 12:17:49;;;;;;;6.55;1.90;;;;;;;;;;4967787;28;20035;-69
2021/06/22 12:20:37;;;;;;;6.22;1.80;;;;;;;;;;4968165;28;20035;-69
2021/06/22 12:23:24;;;;;;;7.35;2.28;;;;;;;;;;4963037;28;20042;-69
2021/06/22 12:26:16;;;;;;;5.57;1.98;;;;;;;;;;4965126;28;20039;-69
2021/06/22 12:29:03;;;;;;;7.65;2.30;;;;;;;;;;4966340;28;20495;-71
2021/06/22 12:31:50;;;;;;;6.60;2.10;;;;;;;;;;4965757;28;20045;-72
2021/06/22 12:34:37;;;;;;;7.70;2.28;;;;;;;;;;4965651;28;20391;-70
2021/06/22 12:37:24;;;;;;;8.32;2.00;;;;;;;;;;4965728;28;20399;-73
2021/06/22 12:40:21;;;;;;;6.18;2.30;;;;;;;;;;4963818;28;20771;-72
2021/06/22 12:43:08;;;;;;;7.95;2.30;;;;;;;;;;4965450;28;20045;-72
2021/06/22 12:46:02;;;;;;;7.72;2.00;;;;;;;;;;4965975;28;20046;-72
2021/06/22 12:48:55;;;;;;;6.28;2.10;;;;;;;;;;4964910;28;20658;-72
2021/06/22 12:51:48;;;;;;;5.63;2.00;;;;;;;;;;4965020;28;20045;-71
2021/06/22 12:54:36;;;;;;;6.93;2.00;;;;;;;;;;4963802;28;20031;-72
2021/06/22 12:57:25;;;;;;;5.78;1.73;;;;;;;;;;4964788;28;20026;-70
2021/06/22 13:00:12;;;;;;;8.07;2.10;;;;;;;;;;4964138;28;20414;-71
2021/06/22 13:03:06;;;;;;;7.18;1.88;;;;;;;;;;4964959;28;20522;-71
2021/06/22 13:05:53;;;;;;;5.95;2.00;;;;;;;;;;4980190;28;20525;-72
2021/06/22 13:08:41;;;;;;;7.80;1.90;;;;;;;;;;4964903;28;91312;-72
2021/06/22 13:11:29;;;;;;;7.90;1.90;;;;;;;;;;4969930;28;20414;-72
2021/06/22 13:14:18;;;;;;;8.80;2.03;;;;;;;;;;4969809;28;20042;-72
2021/06/22 13:17:06;;;;;;;5.85;1.88;;;;;;;;;;4969664;28;20069;-72
2021/06/22 13:19:56;;;;;;;6.00;2.17;;;;;;;;;;4969038;28;20035;-72
2021/06/22 13:22:43;;;;;;;9.57;2.60;;;;;;;;;;4968648;28;20057;-72
2021/06/22 13:25:31;;;;;;;5.68;2.10;;;;;;;;;;4970513;28;21004;-72
2021/06/22 13:28:18;;;;;;;6.93;2.17;;;;;;;;;;4970396;28;20499;-72
2021/06/22 13:31:14;;;;;;;6.95;2.35;;;;;;;;;;4970438;28;20047;-72
2021/06/22 13:34:02;;;;;;;7.40;2.40;;;;;;;;;;4970095;28;20038;-72
2021/06/22 13:36:49;;;;;;;6.50;2.53;;;;;;;;;;4969600;28;20031;-72
2021/06/22 13:39:36;;;;;;;7.53;2.25;;;;;;;;;;4970643;28;20042;-72
2021/06/22 13:42:25;;;;;;;4.80;2.17;;;;;;;;;;4970070;28;20062;-72
2021/06/22 13:45:13;;;;;;;6.88;2.15;;;;;;;;;;4966941;28;20492;-72
2021/06/22 13:48:00;;;;;;;4.47;1.80;;;;;;;;;;4965964;28;20053;-72
2021/06/22 13:50:47;;;;;;;7.50;1.95;;;;;;;;;;4967107;28;20045;-72
2021/06/22 13:53:38;;;;;;;7.10;2.03;;;;;;;;;;4968286;28;20042;-74
2021/06/22 13:56:24;;;;;;;9.77;2.60;;;;;;;;;;4970665;28;20042;-72
2021/06/22 13:59:12;;;;;;;5.15;1.85;;;;;;;;;;4969601;28;20035;-72
2021/06/22 14:01:58;;;;;;;7.20;1.95;;;;;;;;;;4969008;28;20034;-71
2021/06/22 14:04:46;;;;;;;6.10;1.90;;;;;;;;;;4968098;28;20047;-72
2021/06/22 14:07:33;;;;;;;9.52;2.38;;;;;;;;;;4968151;28;20406;-72
2021/06/22 14:10:19;;;;;;;7.03;1.90;;;;;;;;;;4968588;28;20043;-72
2021/06/22 14:13:07;;;;;;;6.90;2.10;;;;;;;;;;4970577;28;20041;-72
2021/06/22 14:15:54;;;;;;;6.85;2.05;;;;;;;;;;4963297;28;20034;-72
2021/06/22 14:18:41;;;;;;;6.05;2.08;;;;;;;;;;4967693;28;20513;-72
2021/06/22 14:21:28;;;;;;;7.63;2.05;;;;;;;;;;4969552;28;20043;-72
2021/06/22 14:24:15;;;;;;;7.65;2.15;;;;;;;;;;4967307;28;20031;-72
2021/06/22 14:27:01;;;;;;;6.78;2.30;;;;;;;;;;4967994;28;20035;-72
2021/06/22 14:29:48;;;;;;;6.15;2.13;;;;;;;;;;4968642;28;20047;-73
2021/06/22 14:32:35;;;;;;;6.68;1.70;;;;;;;;;;4967701;28;20034;-74
2021/06/22 14:35:22;;;;;;;7.43;2.00;;;;;;;;;;4969115;28;20503;-75
2021/06/22 14:38:09;;;;;;;8.63;2.15;;;;;;;;;;4968873;28;20037;-73
2021/06/22 14:40:57;;;;;;;6.47;1.77;;;;;;;;;;4966582;28;20033;-75
2021/06/22 14:43:43;;;;;;;8.23;1.98;;;;;;;;;;4968817;28;20042;-74
2021/06/22 14:46:30;;;;;;;8.60;2.20;;;;;;;;;;4967371;28;20806;-75
2021/06/22 14:49:16;;;;;;;7.68;2.30;;;;;;;;;;4969117;28;20074;-74
2021/06/22 14:52:04;;;;;;;8.25;2.08;;;;;;;;;;4969951;28;20031;-74
2021/06/22 14:54:50;;;;;;;5.97;1.98;;;;;;;;;;4969746;28;20031;-75
2021/06/22 14:57:37;;;;;;;5.07;1.90;;;;;;;;;;4967660;28;20074;-74
2021/06/22 15:00:24;;;;;;;7.30;2.03;;;;;;;;;;4969061;28;20042;-74
2021/06/22 15:03:11;;;;;;;7.75;2.22;;;;;;;;;;4968395;28;20086;-74
2021/06/22 15:06:11;;;;;;;13.68;2.40;;;;;;;;;;4968055;28;20572;-74
2021/06/22 15:08:58;;;;;;;5.97;2.03;;;;;;;;;;4968797;28;20085;-74
2021/06/22 15:11:45;;;;;;;7.00;2.00;;;;;;;;;;4967470;28;20053;-74
2021/06/22 15:14:31;;;;;;;5.18;1.70;;;;;;;;;;4963463;28;20415;-74
2021/06/22 15:17:18;;;;;;;7.25;1.95;;;;;;;;;;4968866;28;20057;-74
2021/06/22 15:20:06;;;;;;;6.25;2.13;;;;;;;;;;4968666;28;20628;-74
2021/06/22 15:22:53;;;;;;;9.00;2.08;;;;;;;;;;4968037;28;20065;-74
2021/06/22 15:25:41;;;;;;;6.22;2.00;;;;;;;;;;4969005;28;20031;-74
2021/06/22 15:28:28;;;;;;;6.78;1.98;;;;;;;;;;4963434;28;20027;-74
2021/06/22 15:31:14;;;;;;;7.00;2.05;;;;;;;;;;4966013;28;20039;-73
2021/06/22 15:34:02;;;;;;;5.35;1.60;;;;;;;;;;4968051;28;20042;-76
2021/06/22 15:36:49;;;;;;;8.43;2.53;;;;;;;;;;4969169;28;20826;-74
2021/06/22 15:39:45;;;;;;;8.55;1.90;;;;;;;;;;4968408;28;20026;-77
2021/06/22 15:42:35;;;;;;;5.65;1.70;;;;;;;;;;4966953;28;20159;-75
2021/06/22 15:45:22;;;;;;;8.15;2.63;;;;;;;;;;4968142;28;20027;-76
2021/06/22 15:48:14;;;;;;;9.00;2.20;;;;;;;;;;4966567;28;20030;-75
2021/06/22 15:51:01;;;;;;;9.10;2.03;;;;;;;;;;4967078;28;20049;-76
2021/06/22 15:53:48;;;;;;;8.75;2.00;;;;;;;;;;4968349;28;20411;-75
2021/06/22 15:56:34;;;;;;;8.98;2.05;;;;;;;;;;4967229;28;20037;-74
2021/06/22 15:59:21;;;;;;;6.97;1.95;;;;;;;;;;4967663;28;20034;-74
2021/06/22 16:02:08;;;;;;;7.70;2.22;;;;;;;;;;4968540;28;20031;-74
2021/06/22 16:04:55;;;;;;;9.52;2.83;;;;;;;;;;4962697;28;20053;-74
2021/06/22 16:07:46;;;;;;;16.05;5.57;;;;;;;;;;4967876;28;20099;-75
2021/06/22 16:10:32;;;;;;;12.48;6.60;;;;;;;;;;4968534;28;20042;-74
2021/06/22 16:13:20;;;;;;;29.67;14.68;;;;;;;;;;4968443;28;20566;-75
2021/06/22 16:16:13;;;;;;;26.02;13.48;;;;;;;;;;4965609;28;20055;-76
2021/06/22 16:19:00;;;;;;;25.52;14.50;;;;;;;;;;4982489;28;20039;-75
2021/06/22 16:21:47;;;;;;;15.43;7.72;;;;;;;;;;4968382;28;20034;-75
2021/06/22 16:24:34;;;;;;;16.00;7.35;;;;;;;;;;4971304;28;20036;-76
2021/06/22 16:27:23;;;;;;;13.63;4.70;;;;;;;;;;4969470;28;20042;-77
2021/06/22 16:30:23;;;;;;;12.30;4.53;;;;;;;;;;4968039;28;20042;-74
2021/06/22 16:33:09;;;;;;;8.98;3.20;;;;;;;;;;4970897;28;20455;-76
2021/06/22 16:35:56;;;;;;;9.25;3.13;;;;;;;;;;4968274;28;20513;-74
2021/06/22 16:38:43;;;;;;;5.75;3.50;;;;;;;;;;4970013;28;20031;-78
2021/06/22 16:41:30;;;;;;;11.65;3.72;;;;;;;;;;4971629;28;20035;-74
2021/06/22 16:44:25;;;;;;;12.25;3.00;;;;;;;;;;4971031;28;20039;-76
2021/06/22 16:47:12;;;;;;;9.50;3.03;;;;;;;;;;4969205;28;20042;-75
2021/06/22 16:49:59;;;;;;;8.85;3.25;;;;;;;;;;4979874;28;20051;-71